sensor_id;sensor_type;location;lat;lon;timestamp;pressure;altitude;pressure_sealevel;temperature;humidity
13011;BME280;6786;57.632;11.962;2023-01-28T00:01:09;101960.13;;;18.96;36.15
13011;BME280;6786;57.632;11.962;2023-01-28T00:03:38;101950.41;;;18.95;36.12
13011;BME280;6786;57.632;11.962;2023-01-28T00:06:11;101945.81;;;18.97;36.10
13011;BME280;6786;57.632;11.962;2023-01-28T00:08:40;101940.66;;;18.94;36.07
13011;BME280;6786;57.632;11.962;2023-01-28T00:11:10;101942.38;;;18.95;36.25
13011;BME280;6786;57.632;11.962;2023-01-28T00:13:39;101905.91;;;18.80;36.00
13011;BME280;6786;57.632;11.962;2023-01-28T00:16:10;101935.09;;;18.97;36.13
13011;BME280;6786;57.632;11.962;2023-01-28T00:18:40;101935.09;;;18.97;36.08
13011;BME280;6786;57.632;11.962;2023-01-28T00:21:11;101929.72;;;18.97;36.04
13011;BME280;6786;57.632;11.962;2023-01-28T00:23:42;101905.47;;;18.86;36.12
13011;BME280;6786;57.632;11.962;2023-01-28T00:26:12;101900.34;;;18.83;36.12
13011;BME280;6786;57.632;11.962;2023-01-28T00:28:41;101919.00;;;18.97;36.08
13011;BME280;6786;57.632;11.962;2023-01-28T00:31:14;101902.16;;;18.95;36.16
13011;BME280;6786;57.632;11.962;2023-01-28T00:33:44;101899.50;;;18.95;36.15
13011;BME280;6786;57.632;11.962;2023-01-28T00:36:15;101905.81;;;18.94;36.04
13011;BME280;6786;57.632;11.962;2023-01-28T00:38:48;101905.63;;;18.97;36.08
13011;BME280;6786;57.632;11.962;2023-01-28T00:41:19;101869.28;;;18.80;36.10
13011;BME280;6786;57.632;11.962;2023-01-28T00:43:49;101894.78;;;18.98;36.06
13011;BME280;6786;57.632;11.962;2023-01-28T00:46:18;101893.94;;;18.98;36.07
13011;BME280;6786;57.632;11.962;2023-01-28T00:48:47;101900.25;;;18.97;35.98
13011;BME280;6786;57.632;11.962;2023-01-28T00:51:18;101885.34;;;18.93;36.07
13011;BME280;6786;57.632;11.962;2023-01-28T00:53:47;101889.31;;;19.00;36.04
13011;BME280;6786;57.632;11.962;2023-01-28T00:56:16;101879.56;;;18.99;36.07
13011;BME280;6786;57.632;11.962;2023-01-28T00:58:45;101865.22;;;19.00;35.98
13011;BME280;6786;57.632;11.962;2023-01-28T01:01:15;101858.13;;;18.99;36.04
13011;BME280;6786;57.632;11.962;2023-01-28T01:03:45;101837.75;;;18.84;36.10
13011;BME280;6786;57.632;11.962;2023-01-28T01:06:14;101859.00;;;18.99;36.10
13011;BME280;6786;57.632;11.962;2023-01-28T01:08:45;101852.75;;;18.99;36.01
13011;BME280;6786;57.632;11.962;2023-01-28T01:11:17;101852.75;;;18.99;36.05
13011;BME280;6786;57.632;11.962;2023-01-28T01:13:49;101837.75;;;18.84;36.08
13011;BME280;6786;57.632;11.962;2023-01-28T01:16:18;101836.69;;;18.99;35.92
13011;BME280;6786;57.632;11.962;2023-01-28T01:18:46;101793.84;;;18.74;36.16
13011;BME280;6786;57.632;11.962;2023-01-28T01:21:16;101843.78;;;19.00;36.00
13011;BME280;6786;57.632;11.962;2023-01-28T01:23:46;101815.38;;;18.85;35.92
13011;BME280;6786;57.632;11.962;2023-01-28T01:26:15;101827.72;;;19.00;36.14
13011;BME280;6786;57.632;11.962;2023-01-28T01:28:44;101833.06;;;19.00;35.98
13011;BME280;6786;57.632;11.962;2023-01-28T01:31:14;101830.38;;;19.00;36.03
13011;BME280;6786;57.632;11.962;2023-01-28T01:33:45;101800.25;;;18.84;36.11
13011;BME280;6786;57.632;11.962;2023-01-28T01:36:14;101810.75;;;18.99;36.01
13011;BME280;6786;57.632;11.962;2023-01-28T01:38:46;101809.88;;;18.99;36.04
13011;BME280;6786;57.632;11.962;2023-01-28T01:41:23;101815.25;;;18.99;36.19
13011;BME280;6786;57.632;11.962;2023-01-28T01:43:53;101816.97;;;19.00;36.02
13011;BME280;6786;57.632;11.962;2023-01-28T01:46:26;101751.84;;;18.62;36.13
13011;BME280;6786;57.632;11.962;2023-01-28T01:49:07;101809.88;;;18.99;35.95
13011;BME280;6786;57.632;11.962;2023-01-28T01:51:39;101811.63;;;19.00;36.00
13011;BME280;6786;57.632;11.962;2023-01-28T01:54:10;101770.50;;;18.76;36.14
13011;BME280;6786;57.632;11.962;2023-01-28T01:56:42;101804.53;;;18.99;35.98
13011;BME280;6786;57.632;11.962;2023-01-28T01:59:14;101814.31;;;19.00;36.07
13011;BME280;6786;57.632;11.962;2023-01-28T02:01:45;101812.56;;;18.99;36.07
13011;BME280;6786;57.632;11.962;2023-01-28T02:04:18;101812.47;;;19.00;36.06
13011;BME280;6786;57.632;11.962;2023-01-28T02:06:49;101800.91;;;19.00;36.00
13011;BME280;6786;57.632;11.962;2023-01-28T02:09:24;101797.25;;;19.01;36.05
13011;BME280;6786;57.632;11.962;2023-01-28T02:11:54;101808.94;;;19.00;36.08
13011;BME280;6786;57.632;11.962;2023-01-28T02:14:26;101801.84;;;18.99;36.06
13011;BME280;6786;57.632;11.962;2023-01-28T02:16:57;101788.47;;;18.99;36.03
13011;BME280;6786;57.632;11.962;2023-01-28T02:19:31;101752.69;;;18.75;36.02
13011;BME280;6786;57.632;11.962;2023-01-28T02:22:27;101785.78;;;18.99;35.78
13011;BME280;6786;57.632;11.962;2023-01-28T02:25:23;101777.75;;;18.99;35.87
13011;BME280;6786;57.632;11.962;2023-01-28T02:28:08;101738.75;;;18.82;35.92
13011;BME280;6786;57.632;11.962;2023-01-28T02:30:44;101770.69;;;18.98;36.01
13011;BME280;6786;57.632;11.962;2023-01-28T02:33:19;101743.06;;;18.85;36.08
13011;BME280;6786;57.632;11.962;2023-01-28T02:35:53;101768.75;;;19.00;36.05
13011;BME280;6786;57.632;11.962;2023-01-28T02:38:25;101779.47;;;19.00;36.01
13011;BME280;6786;57.632;11.962;2023-01-28T02:40:58;101769.59;;;19.00;36.06
13011;BME280;6786;57.632;11.962;2023-01-28T02:43:34;101749.69;;;18.92;35.97
13011;BME280;6786;57.632;11.962;2023-01-28T02:46:12;101769.59;;;19.00;35.93
13011;BME280;6786;57.632;11.962;2023-01-28T02:49:00;101755.38;;;19.00;36.06
13011;BME280;6786;57.632;11.962;2023-01-28T02:51:48;101752.69;;;19.00;35.91
13011;BME280;6786;57.632;11.962;2023-01-28T02:54:32;101747.31;;;19.00;35.98
13011;BME280;6786;57.632;11.962;2023-01-28T02:57:19;101745.59;;;18.99;35.98
13011;BME280;6786;57.632;11.962;2023-01-28T03:00:02;101736.84;;;18.97;35.82
13011;BME280;6786;57.632;11.962;2023-01-28T03:02:37;101757.19;;;18.99;36.05
13011;BME280;6786;57.632;11.962;2023-01-28T03:05:13;101746.47;;;18.99;36.01
13011;BME280;6786;57.632;11.962;2023-01-28T03:07:46;101736.59;;;19.00;36.04
13011;BME280;6786;57.632;11.962;2023-01-28T03:10:18;101731.47;;;18.97;36.05
13011;BME280;6786;57.632;11.962;2023-01-28T03:12:50;101705.78;;;18.82;36.15
13011;BME280;6786;57.632;11.962;2023-01-28T03:15:40;101731.25;;;19.00;36.07
13011;BME280;6786;57.632;11.962;2023-01-28T03:18:32;101717.75;;;18.89;35.98
13011;BME280;6786;57.632;11.962;2023-01-28T03:21:24;101723.22;;;19.00;36.02
13011;BME280;6786;57.632;11.962;2023-01-28T03:24:16;101688.19;;;18.78;36.18
13011;BME280;6786;57.632;11.962;2023-01-28T03:27:05;101718.78;;;18.99;36.09
13011;BME280;6786;57.632;11.962;2023-01-28T03:29:58;101712.59;;;18.98;36.00
13011;BME280;6786;57.632;11.962;2023-01-28T03:32:47;101708.09;;;18.99;36.07
13011;BME280;6786;57.632;11.962;2023-01-28T03:35:34;101689.88;;;18.91;36.09
13011;BME280;6786;57.632;11.962;2023-01-28T03:38:20;101700.16;;;18.97;35.96
13011;BME280;6786;57.632;11.962;2023-01-28T03:41:01;101699.31;;;18.97;36.06
13011;BME280;6786;57.632;11.962;2023-01-28T03:43:30;101690.31;;;18.98;36.09
13011;BME280;6786;57.632;11.962;2023-01-28T03:45:59;101623.53;;;18.59;35.83
13011;BME280;6786;57.632;11.962;2023-01-28T03:48:29;101699.09;;;19.00;36.03
13011;BME280;6786;57.632;11.962;2023-01-28T03:50:58;101691.91;;;19.00;35.96
13011;BME280;6786;57.632;11.962;2023-01-28T03:53:27;101680.47;;;18.98;36.04
13011;BME280;6786;57.632;11.962;2023-01-28T03:55:56;101695.44;;;19.01;36.10
13011;BME280;6786;57.632;11.962;2023-01-28T03:58:25;101688.38;;;19.00;36.06
13011;BME280;6786;57.632;11.962;2023-01-28T04:01:12;101688.38;;;19.00;36.00
13011;BME280;6786;57.632;11.962;2023-01-28T04:03:42;101688.38;;;19.00;36.02
13011;BME280;6786;57.632;11.962;2023-01-28T04:06:10;101690.94;;;19.01;36.12
13011;BME280;6786;57.632;11.962;2023-01-28T04:08:39;101668.06;;;18.85;36.07
13011;BME280;6786;57.632;11.962;2023-01-28T04:11:18;101694.56;;;19.00;36.08
13011;BME280;6786;57.632;11.962;2023-01-28T04:13:47;101655.63;;;18.84;35.99
13011;BME280;6786;57.632;11.962;2023-01-28T04:16:16;101681.06;;;19.02;36.07
13011;BME280;6786;57.632;11.962;2023-01-28T04:18:47;101672.31;;;19.00;36.08
13011;BME280;6786;57.632;11.962;2023-01-28T04:21:15;101686.44;;;19.02;36.11
13011;BME280;6786;57.632;11.962;2023-01-28T04:23:44;101643.00;;;18.73;36.21
13011;BME280;6786;57.632;11.962;2023-01-28T04:26:14;101671.78;;;18.95;36.12
13011;BME280;6786;57.632;11.962;2023-01-28T04:28:43;101681.06;;;19.02;36.06
13011;BME280;6786;57.632;11.962;2023-01-28T04:31:12;101686.44;;;19.02;36.06
13011;BME280;6786;57.632;11.962;2023-01-28T04:33:41;101653.47;;;18.89;36.06
13011;BME280;6786;57.632;11.962;2023-01-28T04:36:10;101669.41;;;19.03;36.15
13011;BME280;6786;57.632;11.962;2023-01-28T04:38:39;101622.97;;;18.79;36.16
13011;BME280;6786;57.632;11.962;2023-01-28T04:41:07;101661.38;;;19.03;36.11
13011;BME280;6786;57.632;11.962;2023-01-28T04:43:35;101657.72;;;19.04;36.16
13011;BME280;6786;57.632;11.962;2023-01-28T04:46:04;101655.03;;;19.04;36.06
13011;BME280;6786;57.632;11.962;2023-01-28T04:48:32;101656.00;;;19.03;35.82
13011;BME280;6786;57.632;11.962;2023-01-28T04:51:03;101657.72;;;19.04;35.97
13011;BME280;6786;57.632;11.962;2023-01-28T04:53:34;101663.06;;;19.04;36.11
13011;BME280;6786;57.632;11.962;2023-01-28T04:56:03;101664.78;;;19.05;36.05
13011;BME280;6786;57.632;11.962;2023-01-28T04:58:32;101660.38;;;19.04;36.10
13011;BME280;6786;57.632;11.962;2023-01-28T05:01:00;101652.34;;;19.04;36.05
13011;BME280;6786;57.632;11.962;2023-01-28T05:03:28;101637.25;;;19.03;36.16
13011;BME280;6786;57.632;11.962;2023-01-28T05:05:57;101611.84;;;18.96;36.02
13011;BME280;6786;57.632;11.962;2023-01-28T05:08:25;101620.44;;;19.01;36.09
13011;BME280;6786;57.632;11.962;2023-01-28T05:10:55;101626.53;;;19.03;36.01
13011;BME280;6786;57.632;11.962;2023-01-28T05:13:25;101599.13;;;18.87;36.12
13011;BME280;6786;57.632;11.962;2023-01-28T05:15:54;101622.13;;;19.02;36.16
13011;BME280;6786;57.632;11.962;2023-01-28T05:18:22;101622.13;;;19.02;36.05
13011;BME280;6786;57.632;11.962;2023-01-28T05:20:50;101618.72;;;19.00;36.20
13011;BME280;6786;57.632;11.962;2023-01-28T05:23:18;101611.41;;;19.02;36.07
13011;BME280;6786;57.632;11.962;2023-01-28T05:25:46;101602.41;;;19.03;36.15
13011;BME280;6786;57.632;11.962;2023-01-28T05:28:16;101598.75;;;19.04;36.10
13011;BME280;6786;57.632;11.962;2023-01-28T05:30:47;101608.63;;;19.03;36.09
13011;BME280;6786;57.632;11.962;2023-01-28T05:33:15;101609.47;;;19.04;36.12
13011;BME280;6786;57.632;11.962;2023-01-28T05:35:43;101606.03;;;19.02;36.09
13011;BME280;6786;57.632;11.962;2023-01-28T05:38:12;101605.81;;;19.05;36.14
13011;BME280;6786;57.632;11.962;2023-01-28T05:40:41;101609.47;;;19.04;36.19
13011;BME280;6786;57.632;11.962;2023-01-28T05:43:12;101614.84;;;19.04;36.17
13011;BME280;6786;57.632;11.962;2023-01-28T05:45:42;101614.84;;;19.04;36.03
13011;BME280;6786;57.632;11.962;2023-01-28T05:48:11;101613.97;;;19.03;36.15
13011;BME280;6786;57.632;11.962;2023-01-28T05:50:40;101573.56;;;18.83;36.21
13011;BME280;6786;57.632;11.962;2023-01-28T05:53:08;101555.59;;;18.72;36.14
13011;BME280;6786;57.632;11.962;2023-01-28T05:55:36;101621.19;;;19.03;36.10
13011;BME280;6786;57.632;11.962;2023-01-28T05:58:05;101590.44;;;18.96;36.14
13011;BME280;6786;57.632;11.962;2023-01-28T06:00:33;101601.44;;;19.04;36.10
13011;BME280;6786;57.632;11.962;2023-01-28T06:03:02;101559.88;;;18.75;36.16
13011;BME280;6786;57.632;11.962;2023-01-28T06:05:31;101616.53;;;19.05;36.14
13011;BME280;6786;57.632;11.962;2023-01-28T06:08:00;101612.38;;;19.01;36.04
13011;BME280;6786;57.632;11.962;2023-01-28T06:10:28;101614.03;;;18.91;36.02
13011;BME280;6786;57.632;11.962;2023-01-28T06:12:57;101626.41;;;19.04;36.30
13011;BME280;6786;57.632;11.962;2023-01-28T06:15:25;101630.91;;;19.04;36.01
13011;BME280;6786;57.632;11.962;2023-01-28T06:17:54;101623.84;;;19.03;36.11
13011;BME280;6786;57.632;11.962;2023-01-28T06:20:24;101569.09;;;18.71;36.17
13011;BME280;6786;57.632;11.962;2023-01-28T06:22:52;101613.13;;;19.03;36.07
13011;BME280;6786;57.632;11.962;2023-01-28T06:25:21;101618.50;;;19.03;36.21
13011;BME280;6786;57.632;11.962;2023-01-28T06:27:49;101612.28;;;19.02;36.08
13011;BME280;6786;57.632;11.962;2023-01-28T06:30:17;101557.41;;;18.72;36.24
13011;BME280;6786;57.632;11.962;2023-01-28T06:32:53;101602.41;;;19.03;36.21
13011;BME280;6786;57.632;11.962;2023-01-28T06:35:22;101614.84;;;19.04;36.20
13011;BME280;6786;57.632;11.962;2023-01-28T06:37:51;101597.50;;;18.97;36.06
13011;BME280;6786;57.632;11.962;2023-01-28T06:40:19;101601.56;;;19.02;36.26
13011;BME280;6786;57.632;11.962;2023-01-28T06:42:50;101602.41;;;19.03;36.12
13011;BME280;6786;57.632;11.962;2023-01-28T06:45:21;101601.66;;;19.01;36.14
13011;BME280;6786;57.632;11.962;2023-01-28T06:47:49;101605.09;;;19.03;36.09
13011;BME280;6786;57.632;11.962;2023-01-28T06:50:17;101603.25;;;19.03;36.15
13011;BME280;6786;57.632;11.962;2023-01-28T06:52:48;101599.00;;;19.01;36.18
13011;BME280;6786;57.632;11.962;2023-01-28T06:55:16;101621.28;;;19.01;36.22
13011;BME280;6786;57.632;11.962;2023-01-28T06:57:45;101620.44;;;19.01;36.13
13011;BME280;6786;57.632;11.962;2023-01-28T07:00:14;101575.72;;;18.78;36.23
13011;BME280;6786;57.632;11.962;2023-01-28T07:02:44;101609.72;;;19.01;36.19
13011;BME280;6786;57.632;11.962;2023-01-28T07:05:12;101572.81;;;18.81;36.11
13011;BME280;6786;57.632;11.962;2023-01-28T07:07:41;101611.41;;;19.02;36.29
13011;BME280;6786;57.632;11.962;2023-01-28T07:10:13;101607.78;;;19.03;36.12
13011;BME280;6786;57.632;11.962;2023-01-28T07:12:41;101567.19;;;18.73;36.28
13011;BME280;6786;57.632;11.962;2023-01-28T07:15:12;101588.72;;;18.95;36.30
13011;BME280;6786;57.632;11.962;2023-01-28T07:17:41;101564.31;;;18.87;36.28
13011;BME280;6786;57.632;11.962;2023-01-28T07:20:11;101563.50;;;18.86;36.29
13011;BME280;6786;57.632;11.962;2023-01-28T07:22:41;101591.72;;;19.03;36.27
13011;BME280;6786;57.632;11.962;2023-01-28T07:25:13;101591.72;;;19.03;36.19
13011;BME280;6786;57.632;11.962;2023-01-28T07:27:46;101603.38;;;19.02;36.21
13011;BME280;6786;57.632;11.962;2023-01-28T07:30:17;101591.94;;;19.00;36.19
13011;BME280;6786;57.632;11.962;2023-01-28T07:32:48;101597.06;;;19.03;36.27
13011;BME280;6786;57.632;11.962;2023-01-28T07:35:19;101573.28;;;18.98;36.39
13011;BME280;6786;57.632;11.962;2023-01-28T07:37:52;101603.25;;;19.03;36.25
13011;BME280;6786;57.632;11.962;2023-01-28T07:40:22;101605.00;;;19.04;36.20
13011;BME280;6786;57.632;11.962;2023-01-28T07:42:52;101613.13;;;19.03;36.29
13011;BME280;6786;57.632;11.962;2023-01-28T07:45:21;101616.53;;;19.05;36.22
13011;BME280;6786;57.632;11.962;2023-01-28T07:47:53;101576.78;;;18.88;36.42
13011;BME280;6786;57.632;11.962;2023-01-28T07:50:23;101511.78;;;18.50;36.26
13011;BME280;6786;57.632;11.962;2023-01-28T07:52:51;101604.13;;;19.04;36.31
13011;BME280;6786;57.632;11.962;2023-01-28T07:55:22;101598.75;;;19.04;36.30
13011;BME280;6786;57.632;11.962;2023-01-28T07:57:51;101602.41;;;19.03;36.20
13011;BME280;6786;57.632;11.962;2023-01-28T08:00:20;101583.81;;;18.89;36.30
13011;BME280;6786;57.632;11.962;2023-01-28T08:02:54;101602.41;;;19.03;36.24
13011;BME280;6786;57.632;11.962;2023-01-28T08:05:23;101577.94;;;18.84;36.24
13011;BME280;6786;57.632;11.962;2023-01-28T08:07:53;101601.56;;;19.02;36.25
13011;BME280;6786;57.632;11.962;2023-01-28T08:10:24;101588.72;;;18.95;36.34
13011;BME280;6786;57.632;11.962;2023-01-28T08:12:56;101591.72;;;19.03;36.34
13011;BME280;6786;57.632;11.962;2023-01-28T08:15:26;101589.97;;;19.02;36.41
13011;BME280;6786;57.632;11.962;2023-01-28T08:17:55;101584.63;;;19.02;36.32
13011;BME280;6786;57.632;11.962;2023-01-28T08:20:25;101581.81;;;19.03;36.38
13011;BME280;6786;57.632;11.962;2023-01-28T08:23:04;101572.19;;;19.01;36.29
13011;BME280;6786;57.632;11.962;2023-01-28T08:25:34;101548.78;;;18.92;36.28
13011;BME280;6786;57.632;11.962;2023-01-28T08:28:04;101548.03;;;18.90;36.33
13011;BME280;6786;57.632;11.962;2023-01-28T08:30:35;101559.56;;;19.03;36.30
13011;BME280;6786;57.632;11.962;2023-01-28T08:33:05;101557.81;;;19.02;36.45
13011;BME280;6786;57.632;11.962;2023-01-28T08:35:34;101551.75;;;19.00;36.31
13011;BME280;6786;57.632;11.962;2023-01-28T08:38:04;101536.38;;;19.02;36.32
13011;BME280;6786;57.632;11.962;2023-01-28T08:40:35;101540.91;;;19.01;36.32
13011;BME280;6786;57.632;11.962;2023-01-28T08:43:07;101525.75;;;18.89;36.46
13011;BME280;6786;57.632;11.962;2023-01-28T08:45:38;101558.81;;;19.01;36.42
13011;BME280;6786;57.632;11.962;2023-01-28T08:48:10;101547.09;;;19.02;36.51
13011;BME280;6786;57.632;11.962;2023-01-28T08:51:00;101550.75;;;19.01;36.48
13011;BME280;6786;57.632;11.962;2023-01-28T08:53:28;101545.41;;;19.01;36.44
13011;BME280;6786;57.632;11.962;2023-01-28T08:56:01;101516.84;;;18.89;36.22
13011;BME280;6786;57.632;11.962;2023-01-28T08:58:30;101510.97;;;18.84;36.42
13011;BME280;6786;57.632;11.962;2023-01-28T09:01:03;101533.22;;;18.97;36.33
13011;BME280;6786;57.632;11.962;2023-01-28T09:03:33;101528.47;;;19.00;36.39
13011;BME280;6786;57.632;11.962;2023-01-28T09:06:03;101540.91;;;19.01;36.46
13011;BME280;6786;57.632;11.962;2023-01-28T09:08:39;101513.66;;;18.84;36.35
13011;BME280;6786;57.632;11.962;2023-01-28T09:11:09;101534.69;;;19.01;36.33
13011;BME280;6786;57.632;11.962;2023-01-28T09:13:40;101507.34;;;18.85;36.50
13011;BME280;6786;57.632;11.962;2023-01-28T09:16:09;101523.97;;;19.01;36.44
13011;BME280;6786;57.632;11.962;2023-01-28T09:18:39;101527.63;;;19.00;36.48
13011;BME280;6786;57.632;11.962;2023-01-28T09:21:10;101517.88;;;18.99;36.51
13011;BME280;6786;57.632;11.962;2023-01-28T09:23:40;101523.97;;;19.01;36.42
13011;BME280;6786;57.632;11.962;2023-01-28T09:26:12;101510.28;;;18.93;36.41
13011;BME280;6786;57.632;11.962;2023-01-28T09:28:41;101516.69;;;19.03;36.45
13011;BME280;6786;57.632;11.962;2023-01-28T09:31:11;101516.69;;;19.03;36.40
13011;BME280;6786;57.632;11.962;2023-01-28T09:33:39;101505.97;;;19.03;36.40
13011;BME280;6786;57.632;11.962;2023-01-28T09:36:10;101509.59;;;19.02;36.46
13011;BME280;6786;57.632;11.962;2023-01-28T09:38:41;101481.25;;;18.76;36.51
13011;BME280;6786;57.632;11.962;2023-01-28T09:41:22;101509.59;;;19.02;36.41
13011;BME280;6786;57.632;11.962;2023-01-28T09:44:04;101503.63;;;18.98;36.52
13011;BME280;6786;57.632;11.962;2023-01-28T09:46:36;101507.91;;;19.01;36.71
13011;BME280;6786;57.632;11.962;2023-01-28T09:49:16;101495.72;;;18.97;36.37
13011;BME280;6786;57.632;11.962;2023-01-28T09:51:49;101517.75;;;19.00;36.44
13011;BME280;6786;57.632;11.962;2023-01-28T09:54:25;101505.22;;;19.01;36.54
13011;BME280;6786;57.632;11.962;2023-01-28T09:57:02;101500.84;;;19.00;36.45
13011;BME280;6786;57.632;11.962;2023-01-28T09:59:33;101500.84;;;19.00;36.38
13011;BME280;6786;57.632;11.962;2023-01-28T10:02:18;101511.44;;;19.01;36.41
13011;BME280;6786;57.632;11.962;2023-01-28T10:04:57;101507.16;;;18.99;36.59
13011;BME280;6786;57.632;11.962;2023-01-28T10:07:33;101471.78;;;18.83;36.56
13011;BME280;6786;57.632;11.962;2023-01-28T10:10:09;101504.25;;;19.02;36.39
13011;BME280;6786;57.632;11.962;2023-01-28T10:13:14;101504.25;;;19.02;36.38
13011;BME280;6786;57.632;11.962;2023-01-28T10:15:57;101459.09;;;18.74;36.40
13011;BME280;6786;57.632;11.962;2023-01-28T10:18:31;101451.28;;;18.71;36.44
13011;BME280;6786;57.632;11.962;2023-01-28T10:21:07;101473.66;;;18.93;36.49
13011;BME280;6786;57.632;11.962;2023-01-28T10:23:45;101483.78;;;19.01;36.43
13011;BME280;6786;57.632;11.962;2023-01-28T10:26:22;101470.41;;;19.01;36.43
13011;BME280;6786;57.632;11.962;2023-01-28T10:28:59;101463.56;;;18.97;36.39
13011;BME280;6786;57.632;11.962;2023-01-28T10:31:32;101425.59;;;18.68;36.68
13011;BME280;6786;57.632;11.962;2023-01-28T10:34:02;101470.41;;;19.01;36.57
13011;BME280;6786;57.632;11.962;2023-01-28T10:36:31;101472.09;;;19.02;36.61
13011;BME280;6786;57.632;11.962;2023-01-28T10:39:00;101396.50;;;18.64;36.46
13011;BME280;6786;57.632;11.962;2023-01-28T10:41:29;101449.66;;;18.92;36.42
13011;BME280;6786;57.632;11.962;2023-01-28T10:43:58;101468.47;;;19.03;36.48
13011;BME280;6786;57.632;11.962;2023-01-28T10:46:29;101469.28;;;19.03;36.62
13011;BME280;6786;57.632;11.962;2023-01-28T10:49:06;101454.09;;;19.04;36.54
13011;BME280;6786;57.632;11.962;2023-01-28T10:51:40;101457.75;;;19.03;36.50
13011;BME280;6786;57.632;11.962;2023-01-28T10:54:20;101439.41;;;18.86;36.48
13011;BME280;6786;57.632;11.962;2023-01-28T10:56:52;101435.03;;;18.85;36.54
13011;BME280;6786;57.632;11.962;2023-01-28T10:59:25;101460.44;;;19.03;36.59
13011;BME280;6786;57.632;11.962;2023-01-28T11:01:56;101441.66;;;19.03;36.58
13011;BME280;6786;57.632;11.962;2023-01-28T11:04:27;101439.00;;;19.03;36.53
13011;BME280;6786;57.632;11.962;2023-01-28T11:06:58;101447.84;;;19.03;36.57
13011;BME280;6786;57.632;11.962;2023-01-28T11:09:29;101403.84;;;18.84;36.58
13011;BME280;6786;57.632;11.962;2023-01-28T11:12:08;101434.34;;;19.05;36.63
13011;BME280;6786;57.632;11.962;2023-01-28T11:14:48;101405.56;;;18.85;36.47
13011;BME280;6786;57.632;11.962;2023-01-28T11:17:17;101428.16;;;19.04;36.56
13011;BME280;6786;57.632;11.962;2023-01-28T11:19:47;101418.28;;;19.05;36.58
13011;BME280;6786;57.632;11.962;2023-01-28T11:22:21;101411.22;;;19.04;36.64
13011;BME280;6786;57.632;11.962;2023-01-28T11:24:51;101413.91;;;19.04;36.58
13011;BME280;6786;57.632;11.962;2023-01-28T11:27:25;101405.84;;;19.04;36.66
13011;BME280;6786;57.632;11.962;2023-01-28T11:29:56;101394.28;;;19.03;36.58
13011;BME280;6786;57.632;11.962;2023-01-28T11:32:29;101378.56;;;18.88;36.69
13011;BME280;6786;57.632;11.962;2023-01-28T11:34:58;101373.91;;;18.90;36.69
13011;BME280;6786;57.632;11.962;2023-01-28T11:37:28;101399.63;;;19.03;36.67
13011;BME280;6786;57.632;11.962;2023-01-28T11:40:15;101395.16;;;19.04;36.58
13011;BME280;6786;57.632;11.962;2023-01-28T11:42:49;101402.19;;;19.05;36.63
13011;BME280;6786;57.632;11.962;2023-01-28T11:45:25;101343.69;;;18.77;36.72
13011;BME280;6786;57.632;11.962;2023-01-28T11:48:06;101388.91;;;19.03;36.65
13011;BME280;6786;57.632;11.962;2023-01-28T11:50:45;101373.72;;;19.04;36.63
13011;BME280;6786;57.632;11.962;2023-01-28T11:53:52;101368.34;;;19.04;36.64
13011;BME280;6786;57.632;11.962;2023-01-28T11:56:53;101363.97;;;19.03;36.68
13011;BME280;6786;57.632;11.962;2023-01-28T11:59:41;101296.72;;;18.73;36.76
13011;BME280;6786;57.632;11.962;2023-01-28T12:02:50;101355.94;;;19.03;36.71
13011;BME280;6786;57.632;11.962;2023-01-28T12:05:39;101339.00;;;19.02;36.75
13011;BME280;6786;57.632;11.962;2023-01-28T12:08:15;101345.47;;;19.00;36.75
13011;BME280;6786;57.632;11.962;2023-01-28T12:10:56;101343.50;;;19.02;36.71
13011;BME280;6786;57.632;11.962;2023-01-28T12:13:40;101307.66;;;18.81;36.82
13011;BME280;6786;57.632;11.962;2023-01-28T12:16:31;101343.50;;;19.02;36.74
13011;BME280;6786;57.632;11.962;2023-01-28T12:19:27;101350.59;;;19.03;36.87
13011;BME280;6786;57.632;11.962;2023-01-28T12:22:22;101361.28;;;19.03;36.85
13011;BME280;6786;57.632;11.962;2023-01-28T12:25:08;101366.66;;;19.03;36.69
13011;BME280;6786;57.632;11.962;2023-01-28T12:27:47;101366.66;;;19.03;36.77
13011;BME280;6786;57.632;11.962;2023-01-28T12:30:27;101338.25;;;18.89;36.72
13011;BME280;6786;57.632;11.962;2023-01-28T12:33:20;101362.13;;;19.03;36.87
13011;BME280;6786;57.632;11.962;2023-01-28T12:36:01;101351.41;;;19.03;36.83
13011;BME280;6786;57.632;11.962;2023-01-28T12:38:43;101334.50;;;19.03;36.89
13011;BME280;6786;57.632;11.962;2023-01-28T12:41:17;101316.72;;;19.02;36.83
13011;BME280;6786;57.632;11.962;2023-01-28T12:43:54;101282.63;;;18.82;36.82
13011;BME280;6786;57.632;11.962;2023-01-28T12:46:30;101311.34;;;19.02;36.83
13011;BME280;6786;57.632;11.962;2023-01-28T12:49:05;101307.72;;;19.03;36.87
13011;BME280;6786;57.632;11.962;2023-01-28T12:51:45;101307.72;;;19.03;36.74
13011;BME280;6786;57.632;11.962;2023-01-28T12:54:19;101300.41;;;18.94;36.75
13011;BME280;6786;57.632;11.962;2023-01-28T12:56:51;101314.78;;;19.04;36.92
13011;BME280;6786;57.632;11.962;2023-01-28T12:59:24;101315.63;;;19.04;36.80
13011;BME280;6786;57.632;11.962;2023-01-28T13:02:03;101309.41;;;19.04;36.90
13011;BME280;6786;57.632;11.962;2023-01-28T13:04:38;101304.06;;;19.04;36.85
13011;BME280;6786;57.632;11.962;2023-01-28T13:07:14;101308.44;;;19.05;36.78
13011;BME280;6786;57.632;11.962;2023-01-28T13:09:50;101302.13;;;19.06;36.92
13011;BME280;6786;57.632;11.962;2023-01-28T13:12:21;101262.03;;;18.82;36.86
13011;BME280;6786;57.632;11.962;2023-01-28T13:14:49;101300.38;;;19.05;37.00
13011;BME280;6786;57.632;11.962;2023-01-28T13:17:25;101311.09;;;19.05;36.66
13011;BME280;6786;57.632;11.962;2023-01-28T13:19:53;101307.47;;;19.06;36.92
13011;BME280;6786;57.632;11.962;2023-01-28T13:22:29;101302.13;;;19.06;36.83